Terminal Aerodrome Forecast
Issued by NWS Upton, NY

Home | Current Version | Previous Version | Text Only | Print | Product List | Glossary On
Versions: 1 2 3 4 5 6 7 8 9 10 11 12 13 14 15 16 17 18 19 20 21 22 23 24 25 26 27 28 29 30 31 32 33 34
000
FTUS41 KOKX 140702 AAA
TAFLGA
TAF AMD
KLGA 140702Z 1407/1512 24008KT 2SM -SN OVC025
      TEMPO 1407/1409 1SM -SN
     FM140900 26004KT 1SM -SN SCT007 OVC015
     FM141100 33004KT 2SM -SN OVC010
     FM141400 32006KT P6SM BKN025
     FM141600 31010G17KT P6SM SCT070
     FM141700 31015G23KT P6SM SCT100
     FM150300 31010KT P6SM FEW100
     FM150800 30005KT P6SM SCT250=

USA.gov is the U.S. government's official web portal to all federal, state and local government web resources and services.